Time;durP1;ratioP1;P1;durP2;ratioP2;P2;SDS_P1;SDS_P2;PMS_P1;PMS_P2;Temp;Humidity;BMP_temperature;BMP_pressure;BME280_temperature;BME280_humidity;BME280_pressure;Samples;Min_cycle;Max_cycle;Signal;HPM_P1;HPM_P2
2022/02/08 00:00:04;;;;;;;6.80;5.55;;;;;;;;;;10308867;28;20071;-65
2022/02/08 00:05:03;;;;;;;7.68;6.88;;;;;;;;;;10310010;28;20072;-65
2022/02/08 00:10:03;;;;;;;8.55;7.45;;;;;;;;;;10308579;28;20067;-65
2022/02/08 00:15:01;;;;;;;8.40;6.82;;;;;;;;;;10310815;28;20064;-64
2022/02/08 00:20:00;;;;;;;11.45;7.93;;;;;;;;;;10310305;28;20063;-64
2022/02/08 00:24:58;;;;;;;13.88;7.90;;;;;;;;;;10307829;28;20116;-64
2022/02/08 00:29:58;;;;;;;11.98;9.38;;;;;;;;;;10309532;28;20501;-63
2022/02/08 00:34:56;;;;;;;14.43;11.15;;;;;;;;;;10310900;28;20076;-64
2022/02/08 00:39:54;;;;;;;19.35;11.98;;;;;;;;;;10310658;28;20063;-64
2022/02/08 00:44:59;;;;;;;24.35;17.00;;;;;;;;;;10310547;28;20525;-65
2022/02/08 00:50:06;;;;;;;23.93;16.83;;;;;;;;;;10310877;28;20063;-64
2022/02/08 00:55:07;;;;;;;27.83;20.98;;;;;;;;;;10315903;28;20343;-64
2022/02/08 01:00:08;;;;;;;26.35;21.85;;;;;;;;;;10312710;28;20049;-64
2022/02/08 01:05:11;;;;;;;27.63;22.30;;;;;;;;;;10304838;28;20077;-64
2022/02/08 01:10:10;;;;;;;26.73;20.15;;;;;;;;;;10304969;28;20087;-64
2022/02/08 01:15:09;;;;;;;25.27;21.33;;;;;;;;;;10305399;28;20041;-64
2022/02/08 01:20:13;;;;;;;14.23;12.73;;;;;;;;;;10306449;28;20489;-65
2022/02/08 01:25:18;;;;;;;7.80;6.47;;;;;;;;;;10307956;28;20503;-65
2022/02/08 01:30:28;;;;;;;4.95;4.53;;;;;;;;;;10307198;28;20076;-65
2022/02/08 01:35:45;;;;;;;7.25;3.33;;;;;;;;;;10307075;28;20442;-65
2022/02/08 01:41:03;;;;;;;3.53;3.22;;;;;;;;;;10305051;28;20056;-64
2022/02/08 01:46:10;;;;;;;2.70;2.50;;;;;;;;;;10307956;28;20083;-65
2022/02/08 01:51:11;;;;;;;2.55;2.35;;;;;;;;;;10307266;28;20047;-64
2022/02/08 01:56:10;;;;;;;2.67;2.47;;;;;;;;;;10302598;28;20064;-65
2022/02/08 02:01:09;;;;;;;4.65;2.58;;;;;;;;;;10306637;28;20047;-65
2022/02/08 02:06:09;;;;;;;3.58;3.13;;;;;;;;;;10315263;28;20079;-64
2022/02/08 02:11:10;;;;;;;4.38;2.90;;;;;;;;;;10312476;28;20040;-64
2022/02/08 02:16:09;;;;;;;3.03;2.30;;;;;;;;;;10307928;28;20394;-65
2022/02/08 02:21:08;;;;;;;3.85;3.28;;;;;;;;;;10306734;28;20624;-65
2022/02/08 02:26:11;;;;;;;2.75;2.55;;;;;;;;;;10303182;28;20064;-64
2022/02/08 02:31:10;;;;;;;3.28;2.72;;;;;;;;;;10306076;28;20072;-64
2022/02/08 02:36:08;;;;;;;4.07;3.35;;;;;;;;;;10305429;28;20064;-65
2022/02/08 02:41:08;;;;;;;3.65;2.50;;;;;;;;;;10302107;28;20048;-65
2022/02/08 02:46:08;;;;;;;13.27;7.35;;;;;;;;;;10300785;28;20064;-64
2022/02/08 02:51:07;;;;;;;5.60;3.80;;;;;;;;;;10301449;28;20044;-65
2022/02/08 02:56:12;;;;;;;3.83;3.05;;;;;;;;;;10300736;28;20056;-65
2022/02/08 03:01:19;;;;;;;4.00;3.70;;;;;;;;;;10304008;28;20486;-64
2022/02/08 03:22:10;;;;;;;5.07;4.13;;;;;;;;;;10306443;28;20072;-65
2022/02/08 03:27:08;;;;;;;7.43;5.75;;;;;;;;;;10380003;28;20067;-65
2022/02/08 03:32:09;;;;;;;5.18;4.00;;;;;;;;;;10371763;28;20047;-64
2022/02/08 03:37:07;;;;;;;4.53;4.10;;;;;;;;;;10377298;28;20484;-65
2022/02/08 03:42:15;;;;;;;7.47;5.75;;;;;;;;;;10392143;28;20070;-65
2022/02/08 03:47:17;;;;;;;11.30;6.95;;;;;;;;;;10391351;28;20475;-64
2022/02/08 03:52:18;;;;;;;8.32;5.05;;;;;;;;;;10389337;28;20075;-65
2022/02/08 03:57:23;;;;;;;4.53;4.07;;;;;;;;;;10390157;28;20047;-65
2022/02/08 04:02:34;;;;;;;4.40;4.00;;;;;;;;;;10389500;28;20289;-65
2022/02/08 04:07:37;;;;;;;5.15;4.63;;;;;;;;;;10391977;28;20074;-65
2022/02/08 04:12:44;;;;;;;4.53;3.95;;;;;;;;;;10393455;28;20524;-65
2022/02/08 04:17:59;;;;;;;5.53;5.03;;;;;;;;;;10390853;28;20082;-65
2022/02/08 04:33:58;;;;;;;10.35;7.13;;;;;;;;;;10389660;28;20073;-65
2022/02/08 04:39:00;;;;;;;6.40;5.80;;;;;;;;;;10393245;28;20173;-65
2022/02/08 04:44:13;;;;;;;13.00;9.90;;;;;;;;;;10395468;28;20508;-65
2022/02/08 04:49:13;;;;;;;11.82;9.40;;;;;;;;;;10388944;28;20528;-65
2022/02/08 04:54:16;;;;;;;17.48;12.60;;;;;;;;;;10393686;28;20094;-65
2022/02/08 04:59:26;;;;;;;7.18;6.47;;;;;;;;;;10392712;28;20043;-64
2022/02/08 05:36:41;;;;;;;9.27;6.75;;;;;;;;;;10355633;28;20078;-64
2022/02/08 05:41:45;;;;;;;5.90;5.30;;;;;;;;;;10387876;28;20153;-64
2022/02/08 05:57:06;;;;;;;28.90;19.98;;;;;;;;;;10366855;28;20079;-63
2022/02/08 06:02:05;;;;;;;16.02;12.98;;;;;;;;;;10388190;28;20078;-64
2022/02/08 06:07:37;;;;;;;12.75;10.05;;;;;;;;;;10388319;28;20087;-65
2022/02/08 06:12:42;;;;;;;10.07;7.95;;;;;;;;;;10388765;28;20478;-65
2022/02/08 06:17:46;;;;;;;20.73;15.77;;;;;;;;;;10381949;28;20043;-65
2022/02/08 06:22:46;;;;;;;19.13;12.90;;;;;;;;;;10385727;28;20078;-65
2022/02/08 06:27:46;;;;;;;13.27;10.63;;;;;;;;;;10381997;28;20086;-63
2022/02/08 06:32:45;;;;;;;11.10;10.00;;;;;;;;;;10385390;28;20074;-65
2022/02/08 06:37:43;;;;;;;12.32;11.02;;;;;;;;;;10384978;28;20067;-65
2022/02/08 06:42:44;;;;;;;14.52;12.90;;;;;;;;;;10393701;27;20071;-64
2022/02/08 06:47:44;;;;;;;15.07;12.15;;;;;;;;;;10379947;28;20093;-64
2022/02/08 06:52:42;;;;;;;19.10;14.63;;;;;;;;;;10379245;28;20063;-64
2022/02/08 06:57:50;;;;;;;17.40;14.45;;;;;;;;;;10379218;28;20069;-64
2022/02/08 07:02:50;;;;;;;25.13;18.42;;;;;;;;;;10381469;28;20636;-64
2022/02/08 07:07:48;;;;;;;38.72;30.10;;;;;;;;;;10385405;28;20082;-64
2022/02/08 07:12:46;;;;;;;18.83;15.05;;;;;;;;;;10389548;28;20071;-64
2022/02/08 07:17:45;;;;;;;16.00;13.35;;;;;;;;;;10393186;28;20074;-63
2022/02/08 07:22:44;;;;;;;17.10;13.65;;;;;;;;;;10395153;28;20524;-63
2022/02/08 07:27:43;;;;;;;16.38;14.32;;;;;;;;;;10395022;28;20068;-64
2022/02/08 07:32:43;;;;;;;20.95;12.82;;;;;;;;;;10394914;28;20062;-64
2022/02/08 07:37:51;;;;;;;14.25;12.68;;;;;;;;;;10392629;28;20071;-64
2022/02/08 07:42:50;;;;;;;15.38;12.07;;;;;;;;;;10395423;28;20077;-64
2022/02/08 07:47:51;;;;;;;24.10;16.55;;;;;;;;;;10395224;28;20127;-64
2022/02/08 07:52:51;;;;;;;49.30;29.60;;;;;;;;;;10394469;28;20051;-64
2022/02/08 07:57:51;;;;;;;28.65;21.60;;;;;;;;;;10393611;28;20078;-64
2022/02/08 08:02:52;;;;;;;29.85;23.17;;;;;;;;;;10392419;28;20371;-64
2022/02/08 08:07:51;;;;;;;22.02;14.68;;;;;;;;;;10389961;28;20075;-64
2022/02/08 08:12:53;;;;;;;43.47;27.55;;;;;;;;;;10392935;28;20064;-64
2022/02/08 08:17:58;;;;;;;30.73;18.67;;;;;;;;;;10391441;28;20060;-64
2022/02/08 08:22:57;;;;;;;22.33;16.27;;;;;;;;;;10393318;28;20073;-64
2022/02/08 08:27:56;;;;;;;45.05;31.80;;;;;;;;;;10392840;28;20079;-64
2022/02/08 08:33:00;;;;;;;68.38;42.17;;;;;;;;;;10393768;28;20460;-64
2022/02/08 08:38:03;;;;;;;23.90;16.38;;;;;;;;;;10393103;28;20074;-64
2022/02/08 08:43:25;;;;;;;24.13;18.38;;;;;;;;;;10394079;28;20063;-64
2022/02/08 08:48:42;;;;;;;15.63;14.02;;;;;;;;;;10391518;28;20089;-64
2022/02/08 08:53:55;;;;;;;16.42;14.80;;;;;;;;;;10389872;28;20074;-64
2022/02/08 08:58:55;;;;;;;13.73;9.68;;;;;;;;;;10389430;28;20043;-64
2022/02/08 09:03:54;;;;;;;13.32;9.95;;;;;;;;;;10390401;28;20083;-65
2022/02/08 09:08:52;;;;;;;14.30;11.63;;;;;;;;;;10389339;28;20078;-65
2022/02/08 09:13:58;;;;;;;15.73;12.75;;;;;;;;;;10388827;28;20074;-64
2022/02/08 09:29:24;;;;;;;18.23;12.73;;;;;;;;;;10385565;28;20079;-65
2022/02/08 09:34:23;;;;;;;15.43;10.43;;;;;;;;;;10388529;28;20455;-65
2022/02/08 09:39:22;;;;;;;21.13;12.82;;;;;;;;;;10389257;28;20094;-65
2022/02/08 09:44:25;;;;;;;12.63;9.93;;;;;;;;;;10389739;28;20088;-65
2022/02/08 09:49:25;;;;;;;9.30;7.07;;;;;;;;;;10387472;28;20074;-65
2022/02/08 09:54:23;;;;;;;35.00;20.48;;;;;;;;;;10391501;28;20109;-65
2022/02/08 09:59:22;;;;;;;23.77;12.35;;;;;;;;;;10390575;28;20087;-65
2022/02/08 10:04:20;;;;;;;17.15;10.02;;;;;;;;;;10389203;28;20067;-65
2022/02/08 10:09:20;;;;;;;11.95;8.48;;;;;;;;;;10390848;28;20071;-65
2022/02/08 10:14:23;;;;;;;22.13;14.93;;;;;;;;;;10391153;28;20067;-64
2022/02/08 10:24:37;;;;;;;12.43;8.73;;;;;;;;;;10367866;28;20075;-64
2022/02/08 10:29:41;;;;;;;11.90;8.73;;;;;;;;;;10392426;28;20100;-64
2022/02/08 10:40:06;;;;;;;28.23;19.25;;;;;;;;;;10389046;28;20076;-64
2022/02/08 10:45:05;;;;;;;13.43;11.23;;;;;;;;;;10385043;28;20308;-66
2022/02/08 10:50:05;;;;;;;9.45;7.93;;;;;;;;;;10387583;28;20488;-64
2022/02/08 10:55:14;;;;;;;11.07;8.38;;;;;;;;;;10386685;28;20063;-66
2022/02/08 11:00:13;;;;;;;8.20;6.93;;;;;;;;;;10385187;28;20067;-65
2022/02/08 11:05:19;;;;;;;13.57;6.63;;;;;;;;;;10390324;28;20071;-63
2022/02/08 11:10:43;;;;;;;12.38;9.38;;;;;;;;;;10386127;28;20063;-64
2022/02/08 11:15:45;;;;;;;14.43;9.05;;;;;;;;;;10389355;28;20048;-63
2022/02/08 11:20:54;;;;;;;9.10;5.18;;;;;;;;;;10387969;28;20063;-64
2022/02/08 11:25:55;;;;;;;9.90;6.88;;;;;;;;;;10388290;28;20074;-65
2022/02/08 11:31:01;;;;;;;9.23;5.20;;;;;;;;;;10386978;28;20079;-65
2022/02/08 11:46:52;;;;;;;7.88;5.65;;;;;;;;;;10386700;28;20074;-65
2022/02/08 11:52:17;;;;;;;6.75;4.60;;;;;;;;;;10382214;28;20078;-64
2022/02/08 11:57:52;;;;;;;10.43;6.47;;;;;;;;;;10388927;28;20063;-64
2022/02/08 12:03:12;;;;;;;9.25;5.55;;;;;;;;;;10385690;28;20064;-64
2022/02/08 12:08:15;;;;;;;45.85;23.70;;;;;;;;;;10380301;28;20079;-65
2022/02/08 12:35:00;;;;;;;8.20;5.80;;;;;;;;;;10392520;28;20722;-65
2022/02/08 12:56:08;;;;;;;7.18;5.88;;;;;;;;;;10348888;28;20480;-65
2022/02/08 14:05:42;;;;;;;17.75;13.85;;;;;;;;;;10387224;28;20504;-64
2022/02/08 14:10:57;;;;;;;38.88;20.20;;;;;;;;;;10387383;28;20077;-63
2022/02/08 14:16:20;;;;;;;7.25;6.00;;;;;;;;;;10380635;28;20497;-64
2022/02/08 14:21:33;;;;;;;11.30;6.70;;;;;;;;;;10381927;28;20511;-64
2022/02/08 14:31:57;;;;;;;17.75;10.98;;;;;;;;;;10381829;28;20071;-64
2022/02/08 14:37:18;;;;;;;29.70;17.88;;;;;;;;;;10375131;28;20086;-64
2022/02/08 15:09:03;;;;;;;;;;;;;;;;;;10333685;28;20094;-64
2022/02/08 15:14:03;;;;;;;18.33;10.65;;;;;;;;;;10381310;28;20078;-64
2022/02/08 15:19:02;;;;;;;24.92;15.32;;;;;;;;;;10375231;28;20076;-64
2022/02/08 15:24:01;;;;;;;21.70;15.50;;;;;;;;;;10381171;28;20063;-63
2022/02/08 15:29:03;;;;;;;25.98;19.02;;;;;;;;;;10353922;28;20071;-62
2022/02/08 15:34:03;;;;;;;28.77;18.02;;;;;;;;;;10383460;28;20480;-62
2022/02/08 15:39:07;;;;;;;19.38;14.35;;;;;;;;;;10380005;28;20072;-63
2022/02/08 15:44:06;;;;;;;30.02;21.63;;;;;;;;;;10382267;28;20453;-63
2022/02/08 15:49:06;;;;;;;35.25;24.90;;;;;;;;;;10383143;28;20480;-63
2022/02/08 16:10:05;;;;;;;28.48;23.05;;;;;;;;;;10377062;28;20075;-64
2022/02/08 16:20:29;;;;;;;28.17;21.25;;;;;;;;;;10368467;28;20044;-65
2022/02/08 16:25:39;;;;;;;30.30;17.38;;;;;;;;;;10388729;28;20074;-65
2022/02/08 16:57:09;;;;;;;19.50;11.52;;;;;;;;;;10381468;28;20075;-64
2022/02/08 17:02:08;;;;;;;26.83;16.40;;;;;;;;;;10386873;28;20059;-64
2022/02/08 17:07:08;;;;;;;21.58;13.73;;;;;;;;;;10384029;28;20456;-64
2022/02/08 17:12:13;;;;;;;23.58;15.35;;;;;;;;;;10384658;28;20102;-65
2022/02/08 17:49:11;;;;;;;21.25;16.08;;;;;;;;;;10378498;28;20141;-63
2022/02/08 17:54:11;;;;;;;17.17;11.45;;;;;;;;;;10368299;28;20083;-63
2022/02/08 17:59:11;;;;;;;18.40;14.57;;;;;;;;;;10383515;28;20082;-63
2022/02/08 18:04:10;;;;;;;56.60;35.45;;;;;;;;;;10376821;28;20504;-64
2022/02/08 18:09:08;;;;;;;39.58;22.08;;;;;;;;;;10379124;28;20469;-63
2022/02/08 18:14:08;;;;;;;65.07;31.55;;;;;;;;;;10375492;28;20067;-63
2022/02/08 18:19:13;;;;;;;165.10;74.85;;;;;;;;;;10380644;28;20082;-63
2022/02/08 19:12:18;;;;;;;30.65;17.60;;;;;;;;;;10358430;28;20476;-62
2022/02/08 19:17:35;;;;;;;22.95;12.75;;;;;;;;;;10392201;28;20508;-63
2022/02/08 19:22:35;;;;;;;18.13;11.02;;;;;;;;;;10385082;28;20067;-62
2022/02/08 19:27:35;;;;;;;28.05;14.80;;;;;;;;;;10385565;28;20067;-63
2022/02/08 19:32:33;;;;;;;38.00;22.23;;;;;;;;;;10377866;28;20075;-63
2022/02/08 19:37:32;;;;;;;30.73;17.40;;;;;;;;;;10386304;28;20074;-63
2022/02/08 19:42:31;;;;;;;20.95;14.82;;;;;;;;;;10391620;28;20538;-63
2022/02/08 19:47:29;;;;;;;18.40;13.40;;;;;;;;;;10378012;28;20072;-63
2022/02/08 19:52:30;;;;;;;24.63;17.90;;;;;;;;;;10379759;28;20164;-63
2022/02/08 19:57:29;;;;;;;33.53;22.65;;;;;;;;;;10387028;28;20068;-63
2022/02/08 20:02:29;;;;;;;43.78;30.30;;;;;;;;;;10384708;28;20063;-62
2022/02/08 20:07:28;;;;;;;34.58;20.95;;;;;;;;;;10382988;28;20524;-62
2022/02/08 20:12:26;;;;;;;23.15;15.52;;;;;;;;;;10382369;28;20067;-63
2022/02/08 20:17:32;;;;;;;78.90;46.78;;;;;;;;;;10381208;28;20059;-63
2022/02/08 20:22:31;;;;;;;179.15;86.38;;;;;;;;;;10380100;28;20064;-63
2022/02/08 20:27:46;;;;;;;116.80;60.70;;;;;;;;;;10389450;28;20090;-63
2022/02/08 20:32:45;;;;;;;50.70;30.80;;;;;;;;;;10375935;28;20063;-62
2022/02/08 20:37:44;;;;;;;58.30;32.13;;;;;;;;;;10390992;28;20062;-63
2022/02/08 20:42:42;;;;;;;86.68;45.92;;;;;;;;;;10385187;28;20055;-63
2022/02/08 20:47:45;;;;;;;56.65;31.13;;;;;;;;;;10386391;28;20071;-63
2022/02/08 20:52:51;;;;;;;38.75;20.23;;;;;;;;;;10393929;28;20075;-63
2022/02/08 20:58:00;;;;;;;34.35;20.98;;;;;;;;;;10382986;28;20519;-63
2022/02/08 21:03:11;;;;;;;28.98;19.92;;;;;;;;;;10392606;28;20070;-63
2022/02/08 21:08:11;;;;;;;37.92;25.95;;;;;;;;;;10385618;28;20071;-63
2022/02/08 21:13:15;;;;;;;59.55;33.38;;;;;;;;;;10384402;28;20067;-62
2022/02/08 21:18:13;;;;;;;61.80;35.92;;;;;;;;;;10385535;28;20066;-62
2022/02/08 21:23:14;;;;;;;37.85;24.05;;;;;;;;;;10373115;28;20067;-61
2022/02/08 21:28:20;;;;;;;24.50;18.67;;;;;;;;;;10383453;28;20063;-61
2022/02/08 21:43:20;;;;;;;37.25;21.27;;;;;;;;;;10387994;28;20063;-62
2022/02/08 21:49:19;;;;;;;37.28;20.17;;;;;;;;;;10379526;28;20075;-62
2022/02/08 21:54:26;;;;;;;34.60;19.25;;;;;;;;;;10384259;28;20071;-62
2022/02/08 21:59:25;;;;;;;42.60;22.23;;;;;;;;;;10382481;28;20071;-62
2022/02/08 22:04:23;;;;;;;20.13;12.07;;;;;;;;;;10384689;28;20519;-62
2022/02/08 22:09:26;;;;;;;122.20;64.97;;;;;;;;;;10380691;28;20079;-62
2022/02/08 22:25:24;;;;;;;19.92;10.70;;;;;;;;;;10377448;28;20074;-62
2022/02/08 22:30:39;;;;;;;46.97;20.45;;;;;;;;;;10381172;28;20063;-64
2022/02/08 22:35:40;;;;;;;56.42;25.90;;;;;;;;;;10381853;28;20071;-62
2022/02/08 22:40:44;;;;;;;17.27;9.07;;;;;;;;;;10381124;28;20420;-62
2022/02/08 22:45:42;;;;;;;22.58;10.52;;;;;;;;;;10379408;28;20109;-63
2022/02/08 22:50:42;;;;;;;12.35;7.63;;;;;;;;;;10381089;28;20123;-63
2022/02/08 22:55:42;;;;;;;15.32;8.63;;;;;;;;;;10380516;28;20070;-62
2022/02/08 23:00:41;;;;;;;16.80;9.35;;;;;;;;;;10368890;28;20063;-62
2022/02/08 23:05:40;;;;;;;24.27;13.55;;;;;;;;;;10379494;28;20036;-62
2022/02/08 23:10:47;;;;;;;16.23;9.80;;;;;;;;;;10382818;28;20070;-62
2022/02/08 23:15:55;;;;;;;34.28;18.88;;;;;;;;;;10382813;28;20067;-63
2022/02/08 23:37:00;;;;;;;8.85;7.43;;;;;;;;;;10378770;28;20082;-63
2022/02/08 23:42:00;;;;;;;11.90;6.40;;;;;;;;;;10379850;28;20079;-63
2022/02/08 23:47:03;;;;;;;10.48;6.90;;;;;;;;;;10377675;28;20067;-62
2022/02/08 23:52:04;;;;;;;33.85;15.13;;;;;;;;;;10386926;28;20526;-62
2022/02/08 23:57:06;;;;;;;12.02;7.18;;;;;;;;;;10387115;28;20071;-62
